createdAt,value
2019-04-22T00:02:24.667Z,10.20
2019-04-22T00:05:07.287Z,10.10
2019-04-22T00:07:58.126Z,10.10
2019-04-22T00:10:30.916Z,10.00
2019-04-22T00:12:59.824Z,10.00
2019-04-22T00:15:27.343Z,9.90
2019-04-22T00:18:07.892Z,9.90
2019-04-22T00:20:35.379Z,9.90
2019-04-22T00:23:10.099Z,9.80
2019-04-22T00:25:44.031Z,9.70
2019-04-22T00:28:19.584Z,9.60
2019-04-22T00:30:49.358Z,9.60
2019-04-22T00:33:22.920Z,9.60
2019-04-22T00:35:54.560Z,9.50
2019-04-22T00:38:33.369Z,9.50
2019-04-22T00:41:02.449Z,9.40
2019-04-22T00:43:36.070Z,9.30
2019-04-22T00:46:02.732Z,9.30
2019-04-22T00:48:32.275Z,9.20
2019-04-22T00:51:12.308Z,9.20
2019-04-22T00:53:39.207Z,9.10
2019-04-22T01:01:19.185Z,9.00
2019-04-22T01:04:00.835Z,9.00
2019-04-22T01:09:00.305Z,8.90
2019-04-22T01:11:29.699Z,8.80
2019-04-22T01:14:01.411Z,8.80
2019-04-22T01:16:35.662Z,8.70
2019-04-22T01:19:09.045Z,8.70
2019-04-22T01:21:40.855Z,8.60
2019-04-22T01:24:09.165Z,8.60
2019-04-22T01:26:34.637Z,8.60
2019-04-22T01:29:09.806Z,8.50
2019-04-22T01:31:34.049Z,8.50
2019-04-22T01:34:17.169Z,8.50
2019-04-22T01:36:52.856Z,8.50
2019-04-22T01:39:37.540Z,8.50
2019-04-22T01:42:06.116Z,8.50
2019-04-22T01:44:38.822Z,8.40
2019-04-22T01:47:23.181Z,8.30
2019-04-22T01:49:46.082Z,8.30
2019-04-22T01:52:18.659Z,8.30
2019-04-22T01:55:07.358Z,8.20
2019-04-22T01:57:20.764Z,8.20
2019-04-22T01:59:45.928Z,8.20
2019-04-22T02:02:30.513Z,8.10
2019-04-22T02:05:02.916Z,8.10
2019-04-22T02:10:05.574Z,8.00
2019-04-22T02:12:38.830Z,8.00
2019-04-22T02:15:12.007Z,8.00
2019-04-22T02:17:50.275Z,8.00
2019-04-22T02:20:13.652Z,8.00
2019-04-22T02:31:26.067Z,7.90
2019-04-22T02:38:59.836Z,7.80
2019-04-22T02:41:31.531Z,7.80
2019-04-22T02:44:04.067Z,7.80
2019-04-22T02:46:44.979Z,7.80
2019-04-22T03:01:44.885Z,7.50
2019-04-22T03:06:42.196Z,7.50
2019-04-22T03:09:18.088Z,7.50
2019-04-22T03:12:00.910Z,7.50
2019-04-22T03:16:54.835Z,7.40
2019-04-22T03:22:00.694Z,7.20
2019-04-22T03:24:38.241Z,7.20
2019-04-22T03:27:08.078Z,7.20
2019-04-22T03:33:06.338Z,7.30
2019-04-22T03:37:53.226Z,7.30
2019-04-22T03:53:09.459Z,7.10
2019-04-22T03:56:11.736Z,7.10
2019-04-22T03:58:01.828Z,7.10
2019-04-22T04:03:21.070Z,7.10
2019-04-22T04:08:26.811Z,7.00
2019-04-22T04:10:55.655Z,7.00
2019-04-22T04:15:55.639Z,7.00
2019-04-22T04:18:42.497Z,6.90
2019-04-22T04:21:22.167Z,7.00
2019-04-22T04:23:50.286Z,7.00
2019-04-22T04:26:16.982Z,7.00
2019-04-22T04:29:13.707Z,7.00
2019-04-22T04:31:25.285Z,7.00
2019-04-22T04:36:28.313Z,7.10
2019-04-22T04:44:15.342Z,7.10
2019-04-22T04:49:16.167Z,7.10
2019-04-22T04:56:44.514Z,7.10
2019-04-22T05:02:00.142Z,7.30
2019-04-22T05:04:26.622Z,7.30
2019-04-22T05:07:05.408Z,7.30
2019-04-22T05:09:21.478Z,7.40
2019-04-22T05:14:26.925Z,7.50
2019-04-22T05:19:36.119Z,7.70
2019-04-22T05:22:05.804Z,7.70
2019-04-22T05:27:13.333Z,7.90
2019-04-22T05:29:56.580Z,7.90
2019-04-22T05:32:09.305Z,7.90
2019-04-22T05:34:40.082Z,7.90
2019-04-22T05:37:19.419Z,8.00
2019-04-22T05:39:43.672Z,8.00
2019-04-22T05:44:49.826Z,8.10
2019-04-22T05:47:19.455Z,8.10
2019-04-22T05:49:48.603Z,8.10
2019-04-22T05:52:25.604Z,8.20
2019-04-22T05:55:03.015Z,8.20
2019-04-22T05:57:49.181Z,8.20
2019-04-22T06:00:06.307Z,8.30
2019-04-22T06:02:48.743Z,8.30
2019-04-22T06:07:38.550Z,8.40
2019-04-22T06:10:24.413Z,8.40
2019-04-22T06:12:43.383Z,8.50
2019-04-22T06:15:18.424Z,8.60
2019-04-22T06:18:06.543Z,8.70
2019-04-22T06:20:32.572Z,8.90
2019-04-22T06:23:04.439Z,9.10
2019-04-22T06:28:13.561Z,9.30
2019-04-22T06:30:50.363Z,9.40
2019-04-22T06:33:15.218Z,9.50
2019-04-22T06:35:48.661Z,9.60
2019-04-22T06:40:55.254Z,9.70
2019-04-22T06:43:23.547Z,9.80
2019-04-22T06:45:53.077Z,9.90
2019-04-22T06:51:04.712Z,10.20
2019-04-22T06:53:34.480Z,10.30
2019-04-22T06:56:08.986Z,10.40
2019-04-22T06:58:34.690Z,10.50
2019-04-22T07:01:09.515Z,10.50
2019-04-22T07:06:14.409Z,10.70
2019-04-22T07:11:11.376Z,10.90
2019-04-22T07:13:50.248Z,11.00
2019-04-22T07:16:29.687Z,11.20
2019-04-22T07:18:54.972Z,11.30
2019-04-22T07:21:25.959Z,11.30
2019-04-22T07:24:17.854Z,11.40
2019-04-22T07:26:24.491Z,11.60
2019-04-22T07:29:06.456Z,11.80
2019-04-22T07:31:34.111Z,11.90
2019-04-22T07:34:17.849Z,12.10
2019-04-22T07:39:17.887Z,12.50
2019-04-22T07:42:06.601Z,12.70
2019-04-22T07:47:04.565Z,13.00
2019-04-22T07:49:33.797Z,13.20
2019-04-22T07:52:03.593Z,13.30
2019-04-22T07:54:32.684Z,13.50
2019-04-22T07:57:08.964Z,13.70
2019-04-22T07:59:40.355Z,13.70
2019-04-22T08:02:12.803Z,13.80
2019-04-22T08:05:03.738Z,13.90
2019-04-22T08:07:18.349Z,13.90
2019-04-22T08:09:57.990Z,14.00
2019-04-22T08:12:18.758Z,14.20
2019-04-22T08:14:52.081Z,14.20
2019-04-22T08:17:45.163Z,14.10
2019-04-22T08:22:25.881Z,14.20
2019-04-22T08:25:01.887Z,14.30
2019-04-22T08:27:35.677Z,14.40
2019-04-22T08:32:42.843Z,14.70
2019-04-22T08:35:15.971Z,14.80
2019-04-22T08:40:20.649Z,15.00
2019-04-22T08:45:30.433Z,15.50
2019-04-22T08:47:51.328Z,15.70
2019-04-22T08:50:31.287Z,15.80
2019-04-22T08:53:05.900Z,15.80
2019-04-22T08:55:32.911Z,15.80
2019-04-22T09:00:37.353Z,15.80
2019-04-22T09:08:14.316Z,15.70
2019-04-22T09:10:50.350Z,15.80
2019-04-22T09:13:14.460Z,16.10
2019-04-22T09:15:48.873Z,16.20
2019-04-22T09:18:31.145Z,16.20
2019-04-22T09:21:07.312Z,16.20
2019-04-22T09:23:30.324Z,16.30
2019-04-22T09:26:04.937Z,16.30
2019-04-22T09:28:40.260Z,16.30
2019-04-22T09:31:06.807Z,16.50
2019-04-22T09:33:38.367Z,16.60
2019-04-22T09:36:21.178Z,16.60
2019-04-22T09:38:45.003Z,16.50
2019-04-22T09:41:14.118Z,16.50
2019-04-22T09:43:52.118Z,16.40
2019-04-22T09:46:25.004Z,16.40
2019-04-22T09:48:59.045Z,16.40
2019-04-22T09:51:27.346Z,16.30
2019-04-22T09:53:58.836Z,16.40
2019-04-22T09:56:31.770Z,16.50
2019-04-22T09:59:05.539Z,16.50
2019-04-22T10:01:38.411Z,16.60
2019-04-22T10:04:07.150Z,16.80
2019-04-22T10:06:38.988Z,17.00
2019-04-22T10:09:33.089Z,17.30
2019-04-22T10:11:47.674Z,17.80
2019-04-22T10:14:33.186Z,18.40
2019-04-22T10:16:50.832Z,18.60
2019-04-22T10:19:17.061Z,18.50
2019-04-22T10:24:19.257Z,18.30
2019-04-22T10:27:00.313Z,18.20
2019-04-22T10:29:36.511Z,18.10
2019-04-22T10:32:00.787Z,18.00
2019-04-22T10:34:21.918Z,18.10
2019-04-22T10:36:44.096Z,18.10
2019-04-22T10:39:16.071Z,18.10
2019-04-22T10:41:46.813Z,18.70
2019-04-22T10:44:17.327Z,19.60
2019-04-22T10:46:48.303Z,20.20
2019-04-22T10:49:20.394Z,20.20
2019-04-22T10:51:51.021Z,19.90
2019-04-22T10:54:21.477Z,19.60
2019-04-22T10:56:52.770Z,19.50
2019-04-22T10:59:24.372Z,19.90
2019-04-22T11:01:55.229Z,20.10
2019-04-22T11:04:30.033Z,19.90
2019-04-22T11:07:03.841Z,19.50
2019-04-22T11:09:40.334Z,19.00
2019-04-22T11:12:11.675Z,18.70
2019-04-22T11:14:41.402Z,18.60
2019-04-22T11:17:11.411Z,18.40
2019-04-22T11:19:41.993Z,18.20
2019-04-22T11:22:18.774Z,17.80
2019-04-22T11:24:44.739Z,17.50
2019-04-22T11:27:16.837Z,17.30
2019-04-22T11:29:47.735Z,17.10
2019-04-22T11:32:18.358Z,17.00
2019-04-22T11:34:49.117Z,16.70
2019-04-22T11:37:20.750Z,16.30
2019-04-22T11:40:04.616Z,15.80
2019-04-22T11:42:23.920Z,15.30
2019-04-22T11:44:55.303Z,14.80
2019-04-22T11:47:27.444Z,14.70
2019-04-22T11:49:59.724Z,14.50
2019-04-22T11:52:30.966Z,14.40
2019-04-22T11:55:02.080Z,14.10
2019-04-22T11:57:32.931Z,13.90
2019-04-22T12:00:05.107Z,13.70
2019-04-22T12:02:36.634Z,13.50
2019-04-22T12:05:12.290Z,13.30
2019-04-22T12:07:42.758Z,13.00
2019-04-22T12:10:22.872Z,13.00
2019-04-22T12:12:48.272Z,12.80
2019-04-22T12:15:19.119Z,12.70
2019-04-22T12:17:50.943Z,12.60
2019-04-22T12:20:23.406Z,12.50
2019-04-22T12:22:54.255Z,12.40
2019-04-22T12:25:38.968Z,12.30
2019-04-22T12:27:57.458Z,12.20
2019-04-22T12:30:29.712Z,12.10
2019-04-22T12:33:00.364Z,12.10
2019-04-22T12:35:30.885Z,12.00
2019-04-22T12:38:06.230Z,11.80
2019-04-22T12:40:43.377Z,11.80
2019-04-22T12:43:08.262Z,11.80
2019-04-22T12:45:38.579Z,11.80
2019-04-22T12:48:10.124Z,11.90
2019-04-22T12:50:43.959Z,11.80
2019-04-22T12:53:16.722Z,11.80
2019-04-22T12:55:45.997Z,11.70
2019-04-22T12:58:17.970Z,11.70
2019-04-22T13:00:51.416Z,11.60
2019-04-22T13:03:22.286Z,11.40
2019-04-22T13:05:56.157Z,11.30
2019-04-22T13:08:27.622Z,11.30
2019-04-22T13:11:06.085Z,11.40
2019-04-22T13:13:31.405Z,11.50
2019-04-22T13:16:02.785Z,11.50
2019-04-22T13:18:40.341Z,11.70
2019-04-22T13:21:06.538Z,11.80
2019-04-22T13:23:37.285Z,11.80
2019-04-22T13:26:10.703Z,11.80
2019-04-22T13:28:41.337Z,11.90
2019-04-22T13:31:11.901Z,11.90
2019-04-22T13:33:43.049Z,12.00
2019-04-22T13:36:13.739Z,12.10
2019-04-22T13:38:44.917Z,12.20
2019-04-22T13:41:26.166Z,12.20
2019-04-22T13:43:49.300Z,12.30
2019-04-22T13:46:20.081Z,12.40
2019-04-22T13:49:17.318Z,12.50
2019-04-22T13:51:52.845Z,12.60
2019-04-22T13:56:47.988Z,12.90
2019-04-22T13:59:10.351Z,13.00
2019-04-22T14:01:34.725Z,13.00
2019-04-22T14:04:25.458Z,13.20
2019-04-22T14:06:56.669Z,13.40
2019-04-22T14:09:28.382Z,13.50
2019-04-22T14:12:05.276Z,13.60
2019-04-22T14:14:31.268Z,13.70
2019-04-22T14:17:04.853Z,13.90
2019-04-22T14:19:36.250Z,14.00
2019-04-22T14:22:07.668Z,14.10
2019-04-22T14:24:38.674Z,14.10
2019-04-22T14:27:22.118Z,14.20
2019-04-22T14:29:41.971Z,14.30
2019-04-22T14:32:18.859Z,14.30
2019-04-22T14:34:44.998Z,14.40
2019-04-22T14:37:16.435Z,14.60
2019-04-22T14:39:48.183Z,14.80
2019-04-22T14:42:40.131Z,15.10
2019-04-22T14:45:29.809Z,15.60
2019-04-22T14:47:49.252Z,16.10
2019-04-22T14:50:20.608Z,16.50
2019-04-22T14:52:46.246Z,17.10
2019-04-22T14:55:11.351Z,18.10
2019-04-22T14:57:35.773Z,18.90
2019-04-22T15:00:15.857Z,19.60
2019-04-22T15:02:47.831Z,20.50
2019-04-22T15:05:18.868Z,21.40
2019-04-22T15:07:49.906Z,21.30
2019-04-22T15:10:22.212Z,20.30
2019-04-22T15:12:55.415Z,19.60
2019-04-22T15:15:46.994Z,20.00
2019-04-22T15:18:21.864Z,20.60
2019-04-22T15:20:54.378Z,21.20
2019-04-22T15:23:26.528Z,21.70
2019-04-22T15:25:58.966Z,21.80
2019-04-22T15:28:29.652Z,21.80
2019-04-22T15:31:01.569Z,22.30
2019-04-22T15:33:33.080Z,21.80
2019-04-22T15:36:03.788Z,21.10
2019-04-22T15:38:34.309Z,20.60
2019-04-22T15:41:05.114Z,19.90
2019-04-22T15:43:37.105Z,19.30
2019-04-22T15:46:09.922Z,18.70
2019-04-22T15:48:42.059Z,18.30
2019-04-22T15:51:13.038Z,17.80
2019-04-22T15:53:43.650Z,17.40
2019-04-22T15:56:14.696Z,17.20
2019-04-22T15:58:46.069Z,17.10
2019-04-22T16:01:23.033Z,16.90
2019-04-22T16:03:50.216Z,16.90
2019-04-22T16:06:22.057Z,17.10
2019-04-22T16:08:53.923Z,17.90
2019-04-22T16:11:24.628Z,18.50
2019-04-22T16:13:56.615Z,18.30
2019-04-22T16:16:28.380Z,18.90
2019-04-22T16:19:00.575Z,19.80
2019-04-22T16:21:40.451Z,20.70
2019-04-22T16:24:05.099Z,21.50
2019-04-22T16:26:38.339Z,21.90
2019-04-22T16:29:11.702Z,21.60
2019-04-22T16:31:43.026Z,21.10
2019-04-22T16:34:15.545Z,20.40
2019-04-22T16:36:47.129Z,20.40
2019-04-22T16:39:18.517Z,20.50
2019-04-22T16:41:50.808Z,20.50
2019-04-22T16:44:22.688Z,19.90
2019-04-22T16:46:53.273Z,19.30
2019-04-22T16:49:23.748Z,18.80
2019-04-22T16:51:54.309Z,18.30
2019-04-22T16:54:27.615Z,17.60
2019-04-22T16:56:57.617Z,17.30
2019-04-22T16:59:28.670Z,17.00
2019-04-22T17:02:14.842Z,16.60
2019-04-22T17:04:57.675Z,16.30
2019-04-22T17:07:29.862Z,15.80
2019-04-22T17:10:01.912Z,15.50
2019-04-22T17:12:45.902Z,15.40
2019-04-22T17:15:10.677Z,15.20
2019-04-22T17:17:41.226Z,15.00
2019-04-22T17:20:13.189Z,14.80
2019-04-22T17:22:43.898Z,14.70
2019-04-22T17:25:18.288Z,14.60
2019-04-22T17:27:49.777Z,14.50
2019-04-22T17:30:22.281Z,14.30
2019-04-22T17:32:54.569Z,14.20
2019-04-22T17:35:26.189Z,14.10
2019-04-22T17:38:08.911Z,13.90
2019-04-22T17:40:49.553Z,13.80
2019-04-22T17:43:36.052Z,13.70
2019-04-22T17:46:01.397Z,13.60
2019-04-22T17:48:51.778Z,13.50
2019-04-22T17:51:32.904Z,13.30
2019-04-22T17:54:17.545Z,13.20
2019-04-22T17:56:30.892Z,12.90
2019-04-22T17:59:02.676Z,12.70
2019-04-22T18:01:41.726Z,12.60
2019-04-22T18:03:57.425Z,12.50
2019-04-22T18:06:52.857Z,12.40
2019-04-22T18:09:19.431Z,12.20
2019-04-22T18:11:51.161Z,12.10
2019-04-22T18:14:35.091Z,12.00
2019-04-22T18:16:55.764Z,11.90
2019-04-22T18:19:27.987Z,11.80
2019-04-22T18:21:51.737Z,11.70
2019-04-22T18:24:18.256Z,11.70
2019-04-22T18:27:07.349Z,11.70
2019-04-22T18:29:32.964Z,11.70
2019-04-22T18:31:55.577Z,11.70
2019-04-22T18:34:32.325Z,11.60
2019-04-22T18:37:11.772Z,11.60
2019-04-22T18:39:46.409Z,11.50
2019-04-22T18:42:09.454Z,11.40
2019-04-22T18:44:55.689Z,11.20
2019-04-22T18:47:14.621Z,11.10
2019-04-22T18:49:49.378Z,10.90
2019-04-22T18:52:27.177Z,10.80
2019-04-22T18:55:14.706Z,10.70
2019-04-22T18:57:59.122Z,10.70
2019-04-22T19:00:23.306Z,10.60
2019-04-22T19:03:03.861Z,10.60
2019-04-22T19:05:45.342Z,10.60
2019-04-22T19:11:06.942Z,10.50
2019-04-22T19:13:49.655Z,10.50
2019-04-22T19:16:12.995Z,10.50
2019-04-22T19:21:08.711Z,10.30
2019-04-22T19:23:37.598Z,10.30
2019-04-22T19:26:15.624Z,10.20
2019-04-22T19:28:45.211Z,10.10
2019-04-22T19:31:21.994Z,10.10
2019-04-22T19:33:53.832Z,10.10
2019-04-22T19:36:26.102Z,10.10
2019-04-22T19:38:55.265Z,10.00
2019-04-22T19:41:48.871Z,10.00
2019-04-22T19:44:05.675Z,10.00
2019-04-22T19:46:35.271Z,9.90
2019-04-22T19:49:21.967Z,9.90
2019-04-22T19:51:56.006Z,9.90
2019-04-22T19:54:13.514Z,9.80
2019-04-22T19:56:38.804Z,9.80
2019-04-22T19:59:12.221Z,9.80
2019-04-22T20:01:49.501Z,9.70
2019-04-22T20:04:34.657Z,9.70
2019-04-22T20:07:07.368Z,9.60
2019-04-22T20:09:43.697Z,9.70
2019-04-22T20:12:10.600Z,9.70
2019-04-22T20:14:48.053Z,9.60
2019-04-22T20:17:18.813Z,9.60
2019-04-22T20:22:17.847Z,9.60
2019-04-22T20:24:47.168Z,9.60
2019-04-22T20:27:34.380Z,9.60
2019-04-22T20:29:58.167Z,9.60
2019-04-22T20:32:34.116Z,9.60
2019-04-22T20:35:07.904Z,9.70
2019-04-22T20:37:38.420Z,9.60
2019-04-22T20:40:13.327Z,9.60
2019-04-22T20:42:48.370Z,9.60
2019-04-22T20:45:14.934Z,9.70
2019-04-22T20:47:40.494Z,9.70
2019-04-22T20:50:25.060Z,9.70
2019-04-22T20:52:59.262Z,9.70
2019-04-22T20:55:20.561Z,9.80
2019-04-22T20:57:58.630Z,9.80
2019-04-22T21:00:28.165Z,9.90
2019-04-22T21:02:51.273Z,9.90
2019-04-22T21:05:27.669Z,10.00
2019-04-22T21:08:11.297Z,10.00
2019-04-22T21:10:34.755Z,10.00
2019-04-22T21:13:11.216Z,9.90
2019-04-22T21:15:49.244Z,10.00
2019-04-22T21:18:15.165Z,10.00
2019-04-22T21:20:53.009Z,10.00
2019-04-22T21:23:19.997Z,10.00
2019-04-22T21:25:39.604Z,9.90
2019-04-22T21:28:25.922Z,10.00
2019-04-22T21:30:55.153Z,9.90
2019-04-22T21:33:20.990Z,9.90
2019-04-22T21:36:12.064Z,9.90
2019-04-22T21:38:34.522Z,9.90
2019-04-22T21:41:08.211Z,10.00
2019-04-22T21:43:46.410Z,9.90
2019-04-22T21:46:13.145Z,9.90
2019-04-22T21:49:00.288Z,9.90
2019-04-22T21:51:19.144Z,9.90
2019-04-22T21:56:36.864Z,9.90
2019-04-22T21:59:01.828Z,9.90
2019-04-22T22:01:49.671Z,9.90
2019-04-22T22:04:17.356Z,9.90
2019-04-22T22:06:40.396Z,9.90
2019-04-22T22:09:23.172Z,10.00
2019-04-22T22:11:51.135Z,10.00
2019-04-22T22:14:22.842Z,10.00
2019-04-22T22:16:50.550Z,10.10
2019-04-22T22:19:28.481Z,10.00
2019-04-22T22:22:35.380Z,10.00
2019-04-22T22:24:55.099Z,10.00
2019-04-22T22:27:25.477Z,10.00
2019-04-22T22:30:15.087Z,10.10
2019-04-22T22:32:32.458Z,10.10
2019-04-22T22:35:03.757Z,10.10
2019-04-22T22:37:21.994Z,10.00
2019-04-22T22:39:54.489Z,10.00
2019-04-22T22:42:22.242Z,10.00
2019-04-22T22:45:00.638Z,10.10
2019-04-22T22:47:42.333Z,10.00
2019-04-22T22:50:15.822Z,10.10
2019-04-22T22:53:01.758Z,10.10
2019-04-22T22:55:20.013Z,10.10
2019-04-22T22:57:56.738Z,10.20
2019-04-22T23:00:19.628Z,10.20
2019-04-22T23:03:10.996Z,10.20
2019-04-22T23:05:34.063Z,10.10
2019-04-22T23:08:02.383Z,10.20
2019-04-22T23:10:48.088Z,10.10
2019-04-22T23:13:25.774Z,10.20
2019-04-22T23:15:35.673Z,10.20
2019-04-22T23:17:50.042Z,10.10
2019-04-22T23:20:30.250Z,10.10
2019-04-22T23:23:17.243Z,10.20
2019-04-22T23:25:56.690Z,10.20
2019-04-22T23:28:16.135Z,10.20
2019-04-22T23:30:45.748Z,10.20
2019-04-22T23:33:37.866Z,10.20
2019-04-22T23:36:05.152Z,10.20
2019-04-22T23:38:53.692Z,10.20
2019-04-22T23:44:13.872Z,10.20
2019-04-22T23:46:37.941Z,10.20
2019-04-22T23:49:11.767Z,10.20
2019-04-22T23:51:55.404Z,10.10
2019-04-22T23:54:40.914Z,10.20
2019-04-22T23:56:46.913Z,10.20
2019-04-22T23:59:38.625Z,10.20
